Time;durP1;ratioP1;P1;durP2;ratioP2;P2;SDS_P1;SDS_P2;PMS_P1;PMS_P2;Temp;Humidity;BMP_temperature;BMP_pressure;BME280_temperature;BME280_humidity;BME280_pressure;Samples;Min_cycle;Max_cycle;Signal;HPM_P1;HPM_P2
2023/05/18 00:00:54;;;;;;;10.77;4.25;;;;;;;;;;6042817;23;20271;-67
2023/05/18 00:03:23;;;;;;;6.07;3.22;;;;;;;;;;6042712;23;20224;-66
2023/05/18 00:05:52;;;;;;;5.90;3.00;;;;;;;;;;6043982;23;20208;-65
2023/05/18 00:08:20;;;;;;;6.20;3.42;;;;;;;;;;6043398;23;20219;-66
2023/05/18 00:10:49;;;;;;;9.05;3.22;;;;;;;;;;6043533;23;20239;-66
2023/05/18 00:13:17;;;;;;;9.15;3.40;;;;;;;;;;6043638;23;20224;-66
2023/05/18 00:15:45;;;;;;;7.93;3.30;;;;;;;;;;6043513;23;20210;-66
2023/05/18 00:18:13;;;;;;;3.17;2.65;;;;;;;;;;6043119;23;20649;-66
2023/05/18 00:20:42;;;;;;;11.52;3.10;;;;;;;;;;6042168;23;20260;-66
2023/05/18 00:23:15;;;;;;;8.30;3.10;;;;;;;;;;6043522;23;20251;-66
2023/05/18 00:25:43;;;;;;;6.47;3.70;;;;;;;;;;6044615;23;20188;-66
2023/05/18 00:28:20;;;;;;;9.55;4.40;;;;;;;;;;6043331;23;20200;-66
2023/05/18 00:30:59;;;;;;;6.97;3.47;;;;;;;;;;6040592;23;20268;-66
2023/05/18 00:33:27;;;;;;;3.08;2.78;;;;;;;;;;6017707;23;20570;-66
2023/05/18 00:35:56;;;;;;;12.48;3.58;;;;;;;;;;6043614;23;20240;-66
2023/05/18 00:38:26;;;;;;;11.88;3.65;;;;;;;;;;6043577;23;20274;-66
2023/05/18 00:40:54;;;;;;;11.65;3.50;;;;;;;;;;6042815;23;20275;-66
2023/05/18 00:43:22;;;;;;;8.65;3.38;;;;;;;;;;6043635;23;20217;-66
2023/05/18 00:45:50;;;;;;;7.20;3.30;;;;;;;;;;6041684;23;20586;-66
2023/05/18 00:48:19;;;;;;;6.90;2.92;;;;;;;;;;6044527;23;20204;-66
2023/05/18 00:50:47;;;;;;;7.28;3.22;;;;;;;;;;6045188;23;20204;-66
2023/05/18 00:53:15;;;;;;;8.18;3.42;;;;;;;;;;6046024;23;20677;-66
2023/05/18 00:55:45;;;;;;;6.85;2.97;;;;;;;;;;6043855;23;20216;-66
2023/05/18 00:58:13;;;;;;;6.75;3.00;;;;;;;;;;6045485;23;20212;-66
2023/05/18 01:00:41;;;;;;;7.40;3.17;;;;;;;;;;6046422;23;20216;-66
2023/05/18 01:03:10;;;;;;;9.50;2.78;;;;;;;;;;6049074;23;20211;-67
2023/05/18 01:05:39;;;;;;;4.25;3.10;;;;;;;;;;6047717;23;20204;-67
2023/05/18 01:08:07;;;;;;;5.13;2.92;;;;;;;;;;6048832;23;20208;-67
2023/05/18 01:10:37;;;;;;;6.53;3.15;;;;;;;;;;6049166;23;20232;-67
2023/05/18 01:13:10;;;;;;;3.63;2.70;;;;;;;;;;6049806;23;20200;-66
2023/05/18 01:15:39;;;;;;;5.28;3.60;;;;;;;;;;6049067;23;20196;-67
2023/05/18 01:18:14;;;;;;;5.80;3.38;;;;;;;;;;6049283;23;20204;-67
2023/05/18 01:20:47;;;;;;;6.57;3.78;;;;;;;;;;6049122;23;20255;-67
2023/05/18 01:23:32;;;;;;;7.38;4.20;;;;;;;;;;6050728;23;20205;-67
2023/05/18 01:26:15;;;;;;;5.50;2.90;;;;;;;;;;6049897;23;20188;-67
2023/05/18 01:28:47;;;;;;;4.07;3.00;;;;;;;;;;6046071;23;20267;-67
2023/05/18 01:31:15;;;;;;;7.18;3.78;;;;;;;;;;6050148;23;20185;-67
2023/05/18 01:33:44;;;;;;;10.65;3.25;;;;;;;;;;6051861;23;20212;-67
2023/05/18 01:36:12;;;;;;;10.10;3.70;;;;;;;;;;6048540;23;20297;-67
2023/05/18 01:38:41;;;;;;;7.40;3.17;;;;;;;;;;6049412;23;20204;-67
2023/05/18 01:41:13;;;;;;;8.07;3.40;;;;;;;;;;6049938;23;20219;-67
2023/05/18 01:43:45;;;;;;;7.82;3.33;;;;;;;;;;6050501;23;20188;-67
2023/05/18 01:46:18;;;;;;;12.10;4.45;;;;;;;;;;6050649;23;20161;-67
2023/05/18 01:48:49;;;;;;;6.10;3.42;;;;;;;;;;6050206;23;20560;-67
2023/05/18 01:51:20;;;;;;;7.97;4.85;;;;;;;;;;6049607;23;20274;-66
2023/05/18 01:53:53;;;;;;;15.23;3.72;;;;;;;;;;6049115;23;20188;-67
2023/05/18 01:56:22;;;;;;;6.25;2.88;;;;;;;;;;6049311;23;20192;-67
2023/05/18 01:58:51;;;;;;;12.23;3.97;;;;;;;;;;6050237;23;20208;-67
2023/05/18 02:01:22;;;;;;;4.70;2.80;;;;;;;;;;6046818;23;20272;-67
2023/05/18 02:03:51;;;;;;;10.85;3.30;;;;;;;;;;6048491;23;20196;-67
2023/05/18 02:06:19;;;;;;;8.82;3.88;;;;;;;;;;6048384;23;20200;-67
2023/05/18 02:08:48;;;;;;;8.73;5.57;;;;;;;;;;6047307;23;20212;-67
2023/05/18 02:11:16;;;;;;;8.50;3.85;;;;;;;;;;6048086;23;20240;-67
2023/05/18 02:13:44;;;;;;;6.90;3.25;;;;;;;;;;6048835;23;20208;-67
2023/05/18 02:16:13;;;;;;;6.38;3.25;;;;;;;;;;6048196;23;20216;-66
2023/05/18 02:18:43;;;;;;;8.20;3.55;;;;;;;;;;6048800;23;20204;-67
2023/05/18 02:21:12;;;;;;;9.55;3.17;;;;;;;;;;6048913;23;20581;-67
2023/05/18 02:23:40;;;;;;;5.72;3.53;;;;;;;;;;6022662;23;20204;-67
2023/05/18 02:26:09;;;;;;;11.15;3.75;;;;;;;;;;6048428;23;20219;-67
2023/05/18 02:28:39;;;;;;;5.63;2.95;;;;;;;;;;6047443;23;20227;-67
2023/05/18 02:31:07;;;;;;;5.25;3.05;;;;;;;;;;6044944;23;20235;-66
2023/05/18 02:33:38;;;;;;;6.18;3.25;;;;;;;;;;6047886;23;20204;-66
2023/05/18 02:36:11;;;;;;;7.05;3.63;;;;;;;;;;6046538;23;20197;-67
2023/05/18 02:38:39;;;;;;;8.02;4.05;;;;;;;;;;6046160;23;20189;-67
2023/05/18 02:41:08;;;;;;;5.95;3.00;;;;;;;;;;6046755;23;20180;-67
2023/05/18 02:43:36;;;;;;;6.38;4.35;;;;;;;;;;6048052;23;20228;-67
2023/05/18 02:46:05;;;;;;;10.77;3.83;;;;;;;;;;6048441;23;20216;-67
2023/05/18 02:48:34;;;;;;;3.75;3.40;;;;;;;;;;6045789;23;20219;-67
2023/05/18 02:51:03;;;;;;;4.95;3.75;;;;;;;;;;6048688;23;20216;-67
2023/05/18 02:53:32;;;;;;;5.68;3.25;;;;;;;;;;6046033;23;20204;-67
2023/05/18 02:56:07;;;;;;;6.53;3.70;;;;;;;;;;6047863;23;20196;-66
2023/05/18 02:59:00;;;;;;;9.75;3.45;;;;;;;;;;6045576;23;20168;-66
2023/05/18 03:01:33;;;;;;;5.20;3.58;;;;;;;;;;6047249;23;20188;-67
2023/05/18 03:04:01;;;;;;;9.27;3.60;;;;;;;;;;6046563;23;20579;-67
2023/05/18 03:06:30;;;;;;;13.23;3.58;;;;;;;;;;6046138;23;20212;-67
2023/05/18 03:09:00;;;;;;;8.27;3.47;;;;;;;;;;6043678;23;20244;-67
2023/05/18 03:11:37;;;;;;;11.05;4.22;;;;;;;;;;6046388;23;20196;-67
2023/05/18 03:14:05;;;;;;;7.05;3.08;;;;;;;;;;6045364;23;20212;-66
2023/05/18 03:16:37;;;;;;;6.13;3.72;;;;;;;;;;6047480;23;20213;-67
2023/05/18 03:19:06;;;;;;;5.85;3.70;;;;;;;;;;6045087;23;20229;-66
2023/05/18 03:21:38;;;;;;;10.43;3.78;;;;;;;;;;6046144;23;20221;-67
2023/05/18 03:24:08;;;;;;;13.50;4.30;;;;;;;;;;6046745;23;20212;-66
2023/05/18 03:26:40;;;;;;;6.72;3.15;;;;;;;;;;6046772;23;20197;-67
2023/05/18 03:29:08;;;;;;;8.63;3.00;;;;;;;;;;6045394;23;20200;-66
2023/05/18 03:31:37;;;;;;;6.38;3.40;;;;;;;;;;6045892;23;20207;-66
2023/05/18 03:34:05;;;;;;;7.38;3.53;;;;;;;;;;6045313;23;20212;-67
2023/05/18 03:36:34;;;;;;;8.50;3.60;;;;;;;;;;6046033;23;20215;-67
2023/05/18 03:39:03;;;;;;;16.70;4.88;;;;;;;;;;6045554;23;20213;-67
2023/05/18 03:41:32;;;;;;;16.63;3.65;;;;;;;;;;6045354;23;20208;-67
2023/05/18 03:44:01;;;;;;;6.78;3.85;;;;;;;;;;6044921;23;20564;-67
2023/05/18 03:46:29;;;;;;;11.50;3.97;;;;;;;;;;6045481;23;20200;-67
2023/05/18 03:48:58;;;;;;;17.60;4.57;;;;;;;;;;6045878;23;20586;-67
2023/05/18 03:51:33;;;;;;;9.60;3.75;;;;;;;;;;6044771;23;20196;-67
2023/05/18 03:54:02;;;;;;;7.30;3.63;;;;;;;;;;6046110;23;20212;-67
2023/05/18 03:56:31;;;;;;;9.50;3.40;;;;;;;;;;6044836;23;20638;-67
2023/05/18 03:59:00;;;;;;;6.70;3.70;;;;;;;;;;6044639;23;20219;-67
2023/05/18 04:01:29;;;;;;;13.30;4.05;;;;;;;;;;6043123;23;20240;-67
2023/05/18 04:03:57;;;;;;;7.10;4.32;;;;;;;;;;6043577;23;20243;-67
2023/05/18 04:06:26;;;;;;;7.90;3.65;;;;;;;;;;6044260;23;20216;-65
2023/05/18 04:08:55;;;;;;;6.22;3.45;;;;;;;;;;6045589;23;20662;-66
2023/05/18 04:11:23;;;;;;;7.85;3.75;;;;;;;;;;6044862;23;20212;-65
2023/05/18 04:13:51;;;;;;;6.75;3.42;;;;;;;;;;6043997;23;20259;-65
2023/05/18 04:16:21;;;;;;;6.70;4.45;;;;;;;;;;6044236;23;20200;-65
2023/05/18 04:18:49;;;;;;;8.13;3.85;;;;;;;;;;6047217;23;20204;-65
2023/05/18 04:21:18;;;;;;;10.27;3.15;;;;;;;;;;6045978;23;20240;-65
2023/05/18 04:23:47;;;;;;;4.22;3.60;;;;;;;;;;6047906;23;20276;-65
2023/05/18 04:26:18;;;;;;;10.25;3.58;;;;;;;;;;6046436;23;20726;-65
2023/05/18 04:28:48;;;;;;;8.77;4.10;;;;;;;;;;6046487;23;20195;-65
2023/05/18 04:31:17;;;;;;;6.57;3.40;;;;;;;;;;6045879;23;20240;-69
2023/05/18 04:33:46;;;;;;;4.82;3.55;;;;;;;;;;6047814;23;20208;-65
2023/05/18 04:36:18;;;;;;;8.45;2.70;;;;;;;;;;6046577;23;20612;-65
2023/05/18 04:38:49;;;;;;;10.68;3.28;;;;;;;;;;6047203;23;20171;-66
2023/05/18 04:41:19;;;;;;;12.45;4.15;;;;;;;;;;6046877;23;20188;-66
2023/05/18 04:43:49;;;;;;;6.43;3.78;;;;;;;;;;6046729;23;20196;-66
2023/05/18 04:46:17;;;;;;;9.15;4.28;;;;;;;;;;6046466;23;20235;-66
2023/05/18 04:48:48;;;;;;;9.57;4.03;;;;;;;;;;6047201;23;20537;-66
2023/05/18 04:51:20;;;;;;;8.70;4.00;;;;;;;;;;6048520;23;20203;-66
2023/05/18 04:53:49;;;;;;;16.17;4.25;;;;;;;;;;6047073;23;20193;-66
2023/05/18 04:56:19;;;;;;;10.38;3.58;;;;;;;;;;6046152;23;20205;-66
2023/05/18 04:58:47;;;;;;;7.72;3.65;;;;;;;;;;6023338;23;20216;-66
2023/05/18 05:01:16;;;;;;;7.63;3.35;;;;;;;;;;6048618;23;20212;-66
2023/05/18 05:03:45;;;;;;;8.40;3.45;;;;;;;;;;6046567;23;20667;-66
2023/05/18 05:06:15;;;;;;;10.32;3.13;;;;;;;;;;6047602;23;20219;-66
2023/05/18 05:08:43;;;;;;;7.90;3.30;;;;;;;;;;6047296;23;20200;-66
2023/05/18 05:11:12;;;;;;;7.75;3.90;;;;;;;;;;6046771;23;20221;-67
2023/05/18 05:13:41;;;;;;;12.27;3.75;;;;;;;;;;6048309;23;20488;-66
2023/05/18 05:16:10;;;;;;;14.15;4.50;;;;;;;;;;6047294;23;20236;-66
2023/05/18 05:18:38;;;;;;;6.18;3.55;;;;;;;;;;6047692;23;20216;-67
2023/05/18 05:21:07;;;;;;;6.63;3.17;;;;;;;;;;6047495;23;20236;-67
2023/05/18 05:23:37;;;;;;;6.75;3.28;;;;;;;;;;6046742;23;20233;-67
2023/05/18 05:26:05;;;;;;;11.30;3.55;;;;;;;;;;6047617;23;20212;-66
2023/05/18 05:28:34;;;;;;;6.13;3.15;;;;;;;;;;6050607;23;20187;-65
2023/05/18 05:31:02;;;;;;;8.07;4.40;;;;;;;;;;6048159;23;20181;-65
2023/05/18 05:33:31;;;;;;;10.90;4.30;;;;;;;;;;6047895;23;20555;-65
2023/05/18 05:35:59;;;;;;;12.13;3.38;;;;;;;;;;6046301;23;20211;-65
2023/05/18 05:38:28;;;;;;;5.10;4.10;;;;;;;;;;6047459;23;20216;-66
2023/05/18 05:40:58;;;;;;;10.52;3.58;;;;;;;;;;6046551;23;20208;-65
2023/05/18 05:43:26;;;;;;;5.82;3.35;;;;;;;;;;6046641;23;20260;-65
2023/05/18 05:45:55;;;;;;;10.60;3.80;;;;;;;;;;6045427;23;20204;-66
2023/05/18 05:48:23;;;;;;;8.07;3.22;;;;;;;;;;6046285;23;20212;-65
2023/05/18 05:50:51;;;;;;;12.13;5.28;;;;;;;;;;6046511;23;20234;-65
2023/05/18 05:53:22;;;;;;;7.00;3.47;;;;;;;;;;6048392;23;20196;-65
2023/05/18 05:55:50;;;;;;;13.98;4.18;;;;;;;;;;6045777;23;20193;-65
2023/05/18 05:58:21;;;;;;;3.28;2.92;;;;;;;;;;6021607;23;20204;-65
2023/05/18 06:00:56;;;;;;;5.97;3.10;;;;;;;;;;6044333;23;20207;-65
2023/05/18 06:03:25;;;;;;;5.03;3.67;;;;;;;;;;6045653;23;20240;-65
2023/05/18 06:05:53;;;;;;;5.15;3.05;;;;;;;;;;6044833;23;20223;-66
2023/05/18 06:08:24;;;;;;;5.68;3.25;;;;;;;;;;6045255;23;20203;-66
2023/05/18 06:10:52;;;;;;;9.68;3.05;;;;;;;;;;6045265;23;20228;-66
2023/05/18 06:13:22;;;;;;;17.73;4.80;;;;;;;;;;6046931;23;20208;-66
2023/05/18 06:15:56;;;;;;;9.07;3.75;;;;;;;;;;6045591;23;20200;-66
2023/05/18 06:18:25;;;;;;;6.65;3.45;;;;;;;;;;6045783;23;20208;-65
2023/05/18 06:20:58;;;;;;;4.90;3.85;;;;;;;;;;6045083;23;20240;-66
2023/05/18 06:23:26;;;;;;;17.63;3.50;;;;;;;;;;6045752;23;20228;-65
2023/05/18 06:26:03;;;;;;;10.65;3.22;;;;;;;;;;6045692;23;20686;-66
2023/05/18 06:28:56;;;;;;;13.20;3.17;;;;;;;;;;6019186;23;20204;-66
2023/05/18 06:31:48;;;;;;;7.13;3.40;;;;;;;;;;6043496;23;20193;-66
2023/05/18 06:34:36;;;;;;;10.55;4.25;;;;;;;;;;6046375;23;20196;-66
2023/05/18 06:37:05;;;;;;;4.90;3.70;;;;;;;;;;6044009;23;20237;-66
2023/05/18 06:39:33;;;;;;;5.82;3.38;;;;;;;;;;6047845;23;20204;-66
2023/05/18 06:42:01;;;;;;;14.10;4.32;;;;;;;;;;6046397;23;20211;-66
2023/05/18 06:44:35;;;;;;;9.93;3.60;;;;;;;;;;6046958;23;20252;-66
2023/05/18 06:47:11;;;;;;;9.52;4.88;;;;;;;;;;6050455;23;20188;-66
2023/05/18 06:49:40;;;;;;;7.95;3.50;;;;;;;;;;6049663;23;20504;-66
2023/05/18 06:52:08;;;;;;;4.30;3.58;;;;;;;;;;6050449;23;20215;-66
2023/05/18 06:54:37;;;;;;;10.43;5.07;;;;;;;;;;6048039;23;20223;-66
2023/05/18 06:57:06;;;;;;;6.25;4.18;;;;;;;;;;6047196;23;20243;-66
2023/05/18 06:59:36;;;;;;;11.02;3.97;;;;;;;;;;6046699;23;20212;-66
2023/05/18 07:02:05;;;;;;;6.00;3.80;;;;;;;;;;6046019;23;20193;-67
2023/05/18 07:04:35;;;;;;;4.45;3.53;;;;;;;;;;6048246;23;20216;-67
2023/05/18 07:07:03;;;;;;;7.65;4.18;;;;;;;;;;6048962;23;20200;-66
2023/05/18 07:09:31;;;;;;;13.57;4.28;;;;;;;;;;6047428;23;20232;-67
2023/05/18 07:12:00;;;;;;;7.55;3.60;;;;;;;;;;6047572;23;20268;-66
2023/05/18 07:14:28;;;;;;;6.72;3.75;;;;;;;;;;6047444;23;20208;-67
2023/05/18 07:16:57;;;;;;;8.75;3.85;;;;;;;;;;6048678;23;20271;-67
2023/05/18 07:19:26;;;;;;;8.35;3.95;;;;;;;;;;6045684;23;20614;-67
2023/05/18 07:21:55;;;;;;;8.15;4.30;;;;;;;;;;6046833;23;20215;-66
2023/05/18 07:24:23;;;;;;;7.82;4.28;;;;;;;;;;6044292;23;20216;-67
2023/05/18 07:26:52;;;;;;;5.70;3.70;;;;;;;;;;6046484;23;20208;-67
2023/05/18 07:29:20;;;;;;;9.05;4.30;;;;;;;;;;6045785;23;20649;-66
2023/05/18 07:31:48;;;;;;;7.93;3.90;;;;;;;;;;6047867;23;20289;-66
2023/05/18 07:34:18;;;;;;;10.32;5.20;;;;;;;;;;6045822;23;20600;-67
2023/05/18 07:36:46;;;;;;;10.05;4.45;;;;;;;;;;6046975;23;20272;-67
2023/05/18 07:39:17;;;;;;;5.47;3.87;;;;;;;;;;6046776;23;20212;-66
2023/05/18 07:41:46;;;;;;;9.60;3.50;;;;;;;;;;6047902;23;20576;-66
2023/05/18 07:44:14;;;;;;;7.57;4.10;;;;;;;;;;6046332;23;20641;-67
2023/05/18 07:46:44;;;;;;;4.43;3.85;;;;;;;;;;6045937;23;20576;-67
2023/05/18 07:49:12;;;;;;;5.37;3.83;;;;;;;;;;6045820;23;20205;-67
2023/05/18 07:51:42;;;;;;;29.38;4.60;;;;;;;;;;6046406;23;20613;-66
2023/05/18 07:54:10;;;;;;;9.20;4.47;;;;;;;;;;6044927;23;20208;-66
2023/05/18 07:56:39;;;;;;;5.45;4.45;;;;;;;;;;6046010;23;20224;-66
2023/05/18 07:59:07;;;;;;;9.20;4.30;;;;;;;;;;6044707;23;20219;-66
2023/05/18 08:01:37;;;;;;;10.77;4.03;;;;;;;;;;6044981;23;20651;-66
2023/05/18 08:04:05;;;;;;;8.63;4.37;;;;;;;;;;6044857;23;20601;-67
2023/05/18 08:06:33;;;;;;;8.80;4.70;;;;;;;;;;6047078;23;20605;-67
2023/05/18 08:09:03;;;;;;;7.73;4.80;;;;;;;;;;6044755;23;20605;-66
2023/05/18 08:11:31;;;;;;;5.83;3.67;;;;;;;;;;6045933;23;20579;-67
2023/05/18 08:13:59;;;;;;;11.10;4.30;;;;;;;;;;6046396;23;20601;-66
2023/05/18 08:16:28;;;;;;;5.50;3.70;;;;;;;;;;6045171;23;20647;-66
2023/05/18 08:18:56;;;;;;;6.20;4.33;;;;;;;;;;6047571;23;20616;-66
2023/05/18 08:21:25;;;;;;;5.30;4.80;;;;;;;;;;6044683;23;20604;-67
2023/05/18 08:23:53;;;;;;;6.03;4.57;;;;;;;;;;6045913;23;20621;-67
2023/05/18 08:26:23;;;;;;;5.67;4.50;;;;;;;;;;6047114;23;20698;-67
2023/05/18 08:28:51;;;;;;;6.80;4.90;;;;;;;;;;6046115;23;20572;-67
2023/05/18 08:31:20;;;;;;;6.83;3.77;;;;;;;;;;6046493;23;20571;-66
2023/05/18 08:33:48;;;;;;;11.07;4.97;;;;;;;;;;6045458;23;21054;-66
2023/05/18 08:36:17;;;;;;;11.13;4.73;;;;;;;;;;6045059;23;20593;-67
2023/05/18 08:38:46;;;;;;;6.57;5.17;;;;;;;;;;6046225;23;20583;-66
2023/05/18 08:41:17;;;;;;;6.30;5.00;;;;;;;;;;6045396;23;20587;-67
2023/05/18 08:43:49;;;;;;;4.13;3.83;;;;;;;;;;6044874;23;20581;-65
2023/05/18 08:46:20;;;;;;;10.70;5.37;;;;;;;;;;6048861;23;20604;-67
2023/05/18 08:48:50;;;;;;;7.40;5.27;;;;;;;;;;6044944;23;20641;-67
2023/05/18 08:51:20;;;;;;;6.63;5.00;;;;;;;;;;6050980;23;20584;-68
2023/05/18 08:53:52;;;;;;;7.10;4.50;;;;;;;;;;6051466;23;20593;-69
2023/05/18 08:56:22;;;;;;;7.07;4.00;;;;;;;;;;6048556;23;20563;-67
2023/05/18 08:58:53;;;;;;;8.60;4.40;;;;;;;;;;6043201;23;20664;-68
2023/05/18 09:01:26;;;;;;;8.03;4.43;;;;;;;;;;6047331;23;20601;-66
2023/05/18 09:03:56;;;;;;;5.63;4.90;;;;;;;;;;6044980;23;20544;-66
2023/05/18 09:06:25;;;;;;;7.87;4.90;;;;;;;;;;6047517;23;20647;-66
2023/05/18 09:08:54;;;;;;;10.03;4.80;;;;;;;;;;6049324;23;20641;-67
2023/05/18 09:11:22;;;;;;;7.40;5.57;;;;;;;;;;6048455;23;20579;-67
2023/05/18 09:13:52;;;;;;;8.60;5.33;;;;;;;;;;6048545;23;21124;-67
2023/05/18 09:16:20;;;;;;;14.03;5.20;;;;;;;;;;6047475;23;20625;-66
2023/05/18 09:18:48;;;;;;;11.40;6.20;;;;;;;;;;6047566;23;20593;-67
2023/05/18 09:21:16;;;;;;;7.80;5.43;;;;;;;;;;6048641;23;20675;-67
2023/05/18 09:23:45;;;;;;;7.90;5.83;;;;;;;;;;6048013;23;20568;-66
2023/05/18 09:26:13;;;;;;;12.30;5.43;;;;;;;;;;6047719;23;20641;-68
2023/05/18 09:28:44;;;;;;;6.07;5.50;;;;;;;;;;6048449;23;20588;-67
2023/05/18 09:31:18;;;;;;;10.90;5.60;;;;;;;;;;6047694;23;20540;-67
2023/05/18 09:33:47;;;;;;;5.83;5.43;;;;;;;;;;6047212;23;20543;-65
2023/05/18 09:36:16;;;;;;;9.20;5.73;;;;;;;;;;6047921;23;20603;-66
2023/05/18 09:38:45;;;;;;;7.60;5.17;;;;;;;;;;6051957;23;20582;-66
2023/05/18 09:41:16;;;;;;;7.17;6.40;;;;;;;;;;6051752;23;20612;-66
2023/05/18 09:43:45;;;;;;;6.93;5.40;;;;;;;;;;6052399;23;20571;-66
2023/05/18 09:46:15;;;;;;;8.90;5.53;;;;;;;;;;6053081;23;20633;-65
2023/05/18 09:48:44;;;;;;;6.60;5.90;;;;;;;;;;6053013;23;20544;-65
2023/05/18 09:51:15;;;;;;;10.30;6.00;;;;;;;;;;6050051;23;20878;-66
2023/05/18 09:53:43;;;;;;;7.27;5.33;;;;;;;;;;6050547;23;20563;-66
2023/05/18 09:56:13;;;;;;;12.73;6.60;;;;;;;;;;6052450;23;20583;-66
2023/05/18 09:58:42;;;;;;;10.80;6.17;;;;;;;;;;6051712;23;20575;-66
2023/05/18 10:01:09;;;;;;;9.60;5.50;;;;;;;;;;6049074;23;20577;-66
2023/05/18 10:03:39;;;;;;;5.73;5.13;;;;;;;;;;6047810;23;20562;-65
2023/05/18 10:06:08;;;;;;;9.40;6.37;;;;;;;;;;6048553;23;20625;-66
2023/05/18 10:08:36;;;;;;;6.87;6.23;;;;;;;;;;6049399;23;20576;-66
2023/05/18 10:11:05;;;;;;;5.83;5.40;;;;;;;;;;6047349;23;20983;-67
2023/05/18 10:13:33;;;;;;;11.77;6.57;;;;;;;;;;6049432;23;20573;-67
2023/05/18 10:16:03;;;;;;;5.90;5.40;;;;;;;;;;6048477;23;20551;-67
2023/05/18 10:18:31;;;;;;;8.67;5.70;;;;;;;;;;6049878;23;20558;-67
2023/05/18 10:21:02;;;;;;;9.40;5.90;;;;;;;;;;6048736;23;20594;-67
2023/05/18 10:23:32;;;;;;;6.47;6.07;;;;;;;;;;6048872;23;20577;-67
2023/05/18 10:26:00;;;;;;;9.80;5.83;;;;;;;;;;6048791;23;20625;-67
2023/05/18 10:28:31;;;;;;;11.80;6.90;;;;;;;;;;6049362;23;20593;-67
2023/05/18 10:31:00;;;;;;;7.30;6.60;;;;;;;;;;6049241;23;20524;-67
2023/05/18 10:33:28;;;;;;;10.80;5.67;;;;;;;;;;6049441;23;20592;-67
2023/05/18 10:35:56;;;;;;;6.20;5.67;;;;;;;;;;6050151;23;21104;-67
2023/05/18 10:38:26;;;;;;;8.90;5.67;;;;;;;;;;6050322;23;20609;-67
2023/05/18 10:40:55;;;;;;;9.87;5.57;;;;;;;;;;6049047;23;20584;-70
2023/05/18 10:43:26;;;;;;;7.20;6.33;;;;;;;;;;6050049;23;20596;-67
2023/05/18 10:45:55;;;;;;;13.07;6.53;;;;;;;;;;6050346;23;20599;-67
2023/05/18 10:48:24;;;;;;;6.47;5.87;;;;;;;;;;6050266;23;20589;-66
2023/05/18 10:50:53;;;;;;;8.87;6.17;;;;;;;;;;6049207;23;20627;-66
2023/05/18 10:53:22;;;;;;;10.33;6.20;;;;;;;;;;6050595;23;20656;-67
2023/05/18 10:55:52;;;;;;;9.00;5.33;;;;;;;;;;6049618;23;21173;-66
2023/05/18 10:58:21;;;;;;;5.83;5.33;;;;;;;;;;6048781;23;20576;-65
2023/05/18 11:00:51;;;;;;;8.80;6.50;;;;;;;;;;6045973;23;20566;-66
2023/05/18 11:03:19;;;;;;;8.60;5.83;;;;;;;;;;6048459;23;20601;-65
2023/05/18 11:05:51;;;;;;;6.40;5.73;;;;;;;;;;6047661;23;20716;-65
2023/05/18 11:08:29;;;;;;;10.80;6.37;;;;;;;;;;6049603;23;20566;-66
2023/05/18 11:11:02;;;;;;;5.63;5.13;;;;;;;;;;6049770;23;20656;-66
2023/05/18 11:13:31;;;;;;;7.27;5.83;;;;;;;;;;6050418;23;20627;-66
2023/05/18 11:16:17;;;;;;;7.43;5.67;;;;;;;;;;6048094;23;20601;-68
2023/05/18 11:18:45;;;;;;;6.17;5.60;;;;;;;;;;6045132;23;20548;-65
2023/05/18 11:21:20;;;;;;;13.90;6.93;;;;;;;;;;6048780;23;20632;-65
2023/05/18 11:24:07;;;;;;;6.77;6.27;;;;;;;;;;6047653;23;20613;-65
2023/05/18 11:26:40;;;;;;;10.47;6.30;;;;;;;;;;6048527;23;20613;-65
2023/05/18 11:29:19;;;;;;;6.23;5.70;;;;;;;;;;6046305;23;20537;-64
2023/05/18 11:31:48;;;;;;;9.23;6.27;;;;;;;;;;6049789;23;20577;-65
2023/05/18 11:34:35;;;;;;;6.53;5.90;;;;;;;;;;6049139;23;20595;-65
2023/05/18 11:37:05;;;;;;;7.07;6.37;;;;;;;;;;6046547;23;20616;-65
2023/05/18 11:39:33;;;;;;;8.43;6.10;;;;;;;;;;6048200;23;20856;-65
2023/05/18 11:42:06;;;;;;;8.77;6.27;;;;;;;;;;6050519;23;20604;-65
2023/05/18 11:44:34;;;;;;;8.20;5.87;;;;;;;;;;6051230;23;20573;-65
2023/05/18 11:47:03;;;;;;;6.60;6.00;;;;;;;;;;6049491;23;20645;-65
2023/05/18 11:49:32;;;;;;;8.40;6.37;;;;;;;;;;6047264;23;20609;-65
2023/05/18 11:52:07;;;;;;;7.00;6.30;;;;;;;;;;6047869;23;20676;-65
2023/05/18 11:54:36;;;;;;;6.83;6.10;;;;;;;;;;6048323;23;20593;-65
2023/05/18 11:57:05;;;;;;;8.30;6.13;;;;;;;;;;6051170;23;21122;-65
2023/05/18 11:59:34;;;;;;;8.80;5.50;;;;;;;;;;6048480;23;20601;-65
2023/05/18 12:02:03;;;;;;;9.50;6.40;;;;;;;;;;6049201;23;21059;-65
2023/05/18 12:04:32;;;;;;;6.13;5.50;;;;;;;;;;6049918;23;20614;-65
2023/05/18 12:07:05;;;;;;;6.40;5.90;;;;;;;;;;6050964;23;21027;-65
2023/05/18 12:09:33;;;;;;;6.47;5.87;;;;;;;;;;6050615;23;20608;-65
2023/05/18 12:12:02;;;;;;;10.27;6.83;;;;;;;;;;6050166;23;20608;-65
2023/05/18 12:14:31;;;;;;;6.67;6.03;;;;;;;;;;6052010;23;20593;-65
2023/05/18 12:17:00;;;;;;;7.80;6.87;;;;;;;;;;6050579;23;21017;-65
2023/05/18 12:19:28;;;;;;;14.67;7.10;;;;;;;;;;6050729;23;20641;-65
2023/05/18 12:21:56;;;;;;;6.10;5.60;;;;;;;;;;6049831;23;20573;-65
2023/05/18 12:24:24;;;;;;;6.83;6.33;;;;;;;;;;6050771;23;20609;-65
2023/05/18 12:26:52;;;;;;;6.17;5.57;;;;;;;;;;6049813;23;20641;-65
2023/05/18 12:29:21;;;;;;;6.20;5.67;;;;;;;;;;6049646;23;20600;-65
2023/05/18 12:31:51;;;;;;;8.90;6.50;;;;;;;;;;6048913;23;20676;-65
2023/05/18 12:34:19;;;;;;;7.37;6.67;;;;;;;;;;6048127;23;20633;-64
2023/05/18 12:36:53;;;;;;;8.13;5.93;;;;;;;;;;6046256;23;20617;-64
2023/05/18 12:39:22;;;;;;;8.50;6.30;;;;;;;;;;6045212;23;20581;-63
2023/05/18 12:41:50;;;;;;;7.37;6.67;;;;;;;;;;6045256;23;20584;-66
2023/05/18 12:44:18;;;;;;;6.67;5.90;;;;;;;;;;6048679;23;20616;-64
2023/05/18 12:46:46;;;;;;;8.53;5.80;;;;;;;;;;6047450;23;21221;-64
2023/05/18 12:49:19;;;;;;;6.60;6.00;;;;;;;;;;6047050;23;20938;-65
2023/05/18 12:51:47;;;;;;;8.80;6.10;;;;;;;;;;6043233;23;21074;-65
2023/05/18 12:54:15;;;;;;;7.20;5.90;;;;;;;;;;6045553;23;20669;-65
2023/05/18 12:56:50;;;;;;;10.93;6.57;;;;;;;;;;6047681;23;21118;-65
2023/05/18 12:59:19;;;;;;;6.50;6.10;;;;;;;;;;6044996;23;20613;-65
2023/05/18 13:01:48;;;;;;;7.73;6.93;;;;;;;;;;6045596;23;20629;-65
2023/05/18 13:04:17;;;;;;;10.67;7.20;;;;;;;;;;6043325;23;20668;-64
2023/05/18 13:06:45;;;;;;;6.40;5.90;;;;;;;;;;6043574;23;20797;-65
2023/05/18 13:09:14;;;;;;;8.83;6.40;;;;;;;;;;6045309;23;20644;-64
2023/05/18 13:11:42;;;;;;;8.43;6.63;;;;;;;;;;6045314;23;20624;-64
2023/05/18 13:14:10;;;;;;;8.93;6.90;;;;;;;;;;6045988;23;20592;-64
2023/05/18 13:16:39;;;;;;;6.40;5.90;;;;;;;;;;6045765;23;20992;-64
2023/05/18 13:19:08;;;;;;;7.97;7.13;;;;;;;;;;6047929;23;20605;-64
2023/05/18 13:21:38;;;;;;;7.90;6.00;;;;;;;;;;6044943;23;21200;-64
2023/05/18 13:24:06;;;;;;;7.90;6.70;;;;;;;;;;6046062;23;20597;-64
2023/05/18 13:26:34;;;;;;;6.70;6.10;;;;;;;;;;6043048;23;20727;-64
2023/05/18 13:29:02;;;;;;;8.57;5.80;;;;;;;;;;6043966;23;20671;-65
2023/05/18 13:31:30;;;;;;;7.17;6.57;;;;;;;;;;6047166;23;20585;-65
2023/05/18 13:33:58;;;;;;;6.10;5.47;;;;;;;;;;6045079;23;20608;-65
2023/05/18 13:36:28;;;;;;;7.57;6.60;;;;;;;;;;6046083;23;20608;-65
2023/05/18 13:38:57;;;;;;;8.07;5.93;;;;;;;;;;6045655;23;20604;-65
2023/05/18 13:41:26;;;;;;;8.00;5.83;;;;;;;;;;6045688;23;21113;-65
2023/05/18 13:43:54;;;;;;;6.80;6.20;;;;;;;;;;6044526;23;20627;-65
2023/05/18 13:46:22;;;;;;;6.23;5.93;;;;;;;;;;6043990;23;20616;-65
2023/05/18 13:48:50;;;;;;;9.00;7.73;;;;;;;;;;6045419;23;20978;-65
2023/05/18 13:51:18;;;;;;;6.60;6.00;;;;;;;;;;6049528;23;20601;-65
2023/05/18 13:53:46;;;;;;;6.63;6.13;;;;;;;;;;6048615;23;20612;-66
2023/05/18 13:56:16;;;;;;;6.93;6.03;;;;;;;;;;6047493;23;20605;-65
2023/05/18 13:58:44;;;;;;;7.97;7.20;;;;;;;;;;6047069;23;20600;-65
2023/05/18 14:01:12;;;;;;;6.50;6.10;;;;;;;;;;6045718;23;20958;-65
2023/05/18 14:03:41;;;;;;;7.53;6.83;;;;;;;;;;6043509;23;20986;-66
2023/05/18 14:06:09;;;;;;;6.80;6.30;;;;;;;;;;6044293;23;20620;-65
2023/05/18 14:08:37;;;;;;;9.97;6.87;;;;;;;;;;6045567;23;21185;-65
2023/05/18 14:11:05;;;;;;;6.43;5.70;;;;;;;;;;6045256;23;20628;-65
2023/05/18 14:13:35;;;;;;;7.70;7.00;;;;;;;;;;6047940;23;20601;-65
2023/05/18 14:16:03;;;;;;;7.20;6.70;;;;;;;;;;6045086;23;20950;-65
2023/05/18 14:18:31;;;;;;;8.27;7.63;;;;;;;;;;6048546;23;20601;-66
2023/05/18 14:21:01;;;;;;;10.23;7.00;;;;;;;;;;6048016;23;20629;-65
2023/05/18 14:23:29;;;;;;;6.50;5.93;;;;;;;;;;6049674;23;20967;-68
2023/05/18 14:25:57;;;;;;;8.70;7.00;;;;;;;;;;6048696;23;20605;-66
2023/05/18 14:28:25;;;;;;;8.07;7.47;;;;;;;;;;6050895;23;20720;-66
2023/05/18 14:30:55;;;;;;;6.67;6.17;;;;;;;;;;6048434;23;20601;-65
2023/05/18 14:33:23;;;;;;;9.93;6.27;;;;;;;;;;6048995;23;20608;-65
2023/05/18 14:35:51;;;;;;;6.10;5.60;;;;;;;;;;6047754;23;21185;-65
2023/05/18 14:38:19;;;;;;;6.50;6.00;;;;;;;;;;6049955;23;20613;-66
2023/05/18 14:40:47;;;;;;;10.10;6.50;;;;;;;;;;6046463;23;20621;-66
2023/05/18 14:43:15;;;;;;;7.20;6.40;;;;;;;;;;6048191;23;20616;-65
2023/05/18 14:45:43;;;;;;;9.20;6.03;;;;;;;;;;6047152;23;20609;-67
2023/05/18 14:48:13;;;;;;;6.83;6.23;;;;;;;;;;6046714;23;20637;-66
2023/05/18 14:50:41;;;;;;;7.80;6.40;;;;;;;;;;6046548;23;20593;-65
2023/05/18 14:53:09;;;;;;;6.97;6.27;;;;;;;;;;6047891;23;20609;-65
2023/05/18 14:55:37;;;;;;;6.37;5.87;;;;;;;;;;6046967;23;20615;-65